Time;durP1;ratioP1;P1;durP2;ratioP2;P2;SDS_P1;SDS_P2;PMS_P1;PMS_P2;Temp;Humidity;BMP_temperature;BMP_pressure;BME280_temperature;BME280_humidity;BME280_pressure;Samples;Min_cycle;Max_cycle;Signal;HPM_P1;HPM_P2
2023/04/10 00:01:53;;;;;;;34.40;25.52;;;16.40;67.70;;;;;;4126948;28;20177;-62
2023/04/10 00:04:34;;;;;;;38.37;27.13;;;16.40;68.60;;;;;;4126786;28;20069;-62
2023/04/10 00:07:15;;;;;;;37.25;26.92;;;16.40;67.90;;;;;;4126963;28;20773;-62
2023/04/10 00:09:56;;;;;;;37.78;28.10;;;16.40;68.90;;;;;;4120394;28;20045;-62
2023/04/10 00:12:39;;;;;;;38.05;28.52;;;16.40;67.80;;;;;;4126768;28;20057;-62
2023/04/10 00:15:19;;;;;;;38.28;27.23;;;16.30;67.40;;;;;;4126716;28;20532;-62
2023/04/10 00:18:01;;;;;;;40.08;29.13;;;16.30;67.50;;;;;;4125674;28;20168;-62
2023/04/10 00:20:42;;;;;;;35.08;26.38;;;16.30;67.60;;;;;;4132274;28;20061;-62
2023/04/10 00:23:25;;;;;;;38.50;28.05;;;16.30;67.80;;;;;;4141126;28;20175;-62
2023/04/10 00:26:06;;;;;;;37.22;27.10;;;16.30;68.80;;;;;;4123133;28;20046;-63
2023/04/10 00:28:48;;;;;;;38.65;28.33;;;16.30;68.20;;;;;;4110567;28;20045;-62
2023/04/10 00:31:29;;;;;;;39.50;27.48;;;16.30;68.30;;;;;;4109299;28;20065;-63
2023/04/10 00:34:10;;;;;;;40.42;29.75;;;16.30;68.20;;;;;;4112903;28;20053;-62
2023/04/10 00:36:51;;;;;;;39.63;28.90;;;16.20;68.10;;;;;;4136925;28;20045;-63
2023/04/10 00:39:32;;;;;;;43.80;28.95;;;16.20;68.10;;;;;;4136838;28;20441;-63
2023/04/10 00:42:13;;;;;;;41.08;29.60;;;16.20;68.20;;;;;;4124927;28;20182;-62
2023/04/10 00:44:55;;;;;;;36.78;29.25;;;16.20;68.20;;;;;;4129755;28;20040;-62
2023/04/10 00:47:37;;;;;;;40.88;29.08;;;16.20;67.90;;;;;;4141270;28;20061;-62
2023/04/10 00:50:19;;;;;;;42.60;31.27;;;16.20;67.90;;;;;;4141285;28;20068;-62
2023/04/10 00:53:00;;;;;;;39.72;29.38;;;16.20;68.10;;;;;;4140807;28;20053;-62
2023/04/10 00:55:41;;;;;;;41.78;30.60;;;16.20;68.00;;;;;;4142417;28;20060;-63
2023/04/10 00:58:22;;;;;;;42.50;31.13;;;16.20;68.10;;;;;;4111570;28;20104;-62
2023/04/10 01:01:05;;;;;;;42.40;29.65;;;16.20;68.10;;;;;;4126076;28;20054;-62
2023/04/10 01:03:46;;;;;;;43.95;30.45;;;16.20;68.10;;;;;;4125979;28;20052;-61
2023/04/10 01:06:35;;;;;;;44.75;31.02;;;16.20;68.20;;;;;;4139554;28;20052;-62
2023/04/10 01:09:26;;;;;;;41.88;31.08;;;16.10;68.10;;;;;;4142344;28;20512;-63
2023/04/10 01:12:18;;;;;;;42.72;31.17;;;16.10;68.30;;;;;;4142034;28;20171;-62
2023/04/10 01:15:06;;;;;;;41.53;30.40;;;16.10;68.20;;;;;;4138105;28;20056;-63
2023/04/10 01:17:54;;;;;;;41.28;30.20;;;16.10;68.00;;;;;;4142242;28;20049;-62
2023/04/10 01:20:40;;;;;;;42.30;30.58;;;16.10;67.80;;;;;;4141020;28;20057;-63
2023/04/10 01:24:03;;;;;;;42.92;29.88;;;16.10;68.00;;;;;;4142178;28;20047;-63
2023/04/10 01:26:58;;;;;;;45.80;32.95;;;16.10;67.20;;;;;;4141927;28;20496;-63
2023/04/10 01:29:45;;;;;;;41.30;30.15;;;16.10;67.80;;;;;;4109710;28;20078;-63
2023/04/10 01:32:29;;;;;;;42.50;30.65;;;16.10;67.90;;;;;;4121717;28;20057;-63
2023/04/10 01:35:12;;;;;;;43.72;31.25;;;16.00;67.80;;;;;;4126091;28;20132;-62
2023/04/10 01:37:53;;;;;;;44.35;30.88;;;16.00;68.00;;;;;;4125804;28;20052;-63
2023/04/10 01:40:38;;;;;;;41.78;30.05;;;16.00;68.30;;;;;;4139016;28;20060;-62
2023/04/10 01:43:20;;;;;;;41.70;29.55;;;16.00;68.40;;;;;;4140813;28;20220;-62
2023/04/10 01:46:06;;;;;;;42.88;32.15;;;16.00;68.70;;;;;;4140705;28;20188;-63
2023/04/10 01:48:48;;;;;;;46.20;32.63;;;16.00;68.60;;;;;;4105083;28;20058;-63
2023/04/10 01:51:31;;;;;;;45.47;32.20;;;16.00;68.60;;;;;;4116988;28;20569;-63
2023/04/10 01:54:14;;;;;;;44.08;31.67;;;16.00;68.50;;;;;;4143730;28;20404;-63
2023/04/10 01:56:57;;;;;;;41.35;30.95;;;15.90;68.60;;;;;;4142641;28;20061;-62
2023/04/10 01:59:39;;;;;;;44.80;32.22;;;15.90;68.30;;;;;;4128025;28;20054;-62
2023/04/10 02:02:21;;;;;;;;;;;15.90;68.30;;;;;;4116907;28;20065;-63
2023/04/10 02:05:03;;;;;;;43.55;31.75;;;15.90;68.70;;;;;;4139659;28;19932;-63
2023/04/10 02:07:50;;;;;;;41.20;30.80;;;15.90;69.20;;;;;;4118230;28;20105;-63
2023/04/10 02:10:37;;;;;;;41.42;29.27;;;15.90;70.00;;;;;;4127921;28;20095;-62
2023/04/10 02:13:21;;;;;;;43.72;31.33;;;15.90;69.10;;;;;;4126617;28;20464;-62
2023/04/10 02:16:07;;;;;;;43.35;31.52;;;15.90;69.10;;;;;;4133779;28;20061;-63
2023/04/10 02:18:50;;;;;;;40.20;29.17;;;15.90;68.90;;;;;;4144693;28;20072;-63
2023/04/10 02:21:31;;;;;;;40.50;30.50;;;15.80;69.00;;;;;;4130113;28;20517;-63
2023/04/10 02:24:13;;;;;;;38.45;28.70;;;15.80;69.00;;;;;;4111088;28;20058;-62
2023/04/10 02:26:54;;;;;;;41.08;30.00;;;15.80;68.90;;;;;;4114590;28;20112;-63
2023/04/10 02:29:36;;;;;;;42.17;29.48;;;15.80;69.00;;;;;;4112392;28;20057;-63
2023/04/10 02:32:20;;;;;;;43.22;31.25;;;15.80;69.00;;;;;;4112198;28;20061;-63
2023/04/10 02:35:03;;;;;;;40.47;29.52;;;15.80;69.00;;;;;;4118844;28;20485;-63
2023/04/10 02:37:45;;;;;;;40.95;29.58;;;15.80;68.90;;;;;;4127395;28;20045;-62
2023/04/10 02:40:27;;;;;;;40.08;29.20;;;15.80;69.00;;;;;;4136946;28;20060;-62
2023/04/10 02:43:21;;;;;;;44.17;30.33;;;15.80;69.00;;;;;;4142989;28;20056;-62
2023/04/10 02:46:02;;;;;;;42.55;28.42;;;15.80;68.90;;;;;;4143438;28;20053;-63
2023/04/10 02:48:51;;;;;;;40.53;28.27;;;15.80;69.00;;;;;;4130826;28;20049;-63
2023/04/10 02:51:36;;;;;;;40.97;29.23;;;15.80;69.20;;;;;;4125670;28;20057;-63
2023/04/10 02:54:17;;;;;;;38.17;28.20;;;15.80;69.00;;;;;;4121859;28;20355;-63
2023/04/10 02:57:00;;;;;;;39.03;28.17;;;15.70;69.00;;;;;;4110605;28;20069;-63
2023/04/10 02:59:41;;;;;;;40.10;28.48;;;15.70;69.00;;;;;;4110688;28;20182;-63
2023/04/10 03:02:22;;;;;;;37.10;25.90;;;15.70;69.90;;;;;;4110568;28;20398;-63
2023/04/10 03:05:04;;;;;;;38.60;28.08;;;15.70;69.00;;;;;;4110526;28;20471;-63
2023/04/10 03:07:47;;;;;;;38.58;28.20;;;15.70;68.90;;;;;;4110544;28;20193;-63
2023/04/10 03:10:28;;;;;;;36.08;27.77;;;15.70;68.60;;;;;;4110532;28;20819;-63
2023/04/10 03:13:08;;;;;;;34.67;26.13;;;15.70;68.90;;;;;;4110529;28;20541;-63
2023/04/10 03:15:49;;;;;;;36.35;27.35;;;15.70;69.00;;;;;;4121735;28;20573;-62
2023/04/10 03:18:33;;;;;;;37.05;26.13;;;15.70;69.30;;;;;;4117554;28;20049;-63
2023/04/10 03:21:14;;;;;;;39.25;27.33;;;15.70;69.30;;;;;;4143591;28;20140;-63
2023/04/10 03:23:56;;;;;;;33.80;24.08;;;15.70;69.40;;;;;;4142471;28;20438;-63
2023/04/10 03:26:38;;;;;;;33.67;25.92;;;15.70;69.40;;;;;;4142579;28;20060;-63
2023/04/10 03:29:19;;;;;;;38.42;25.90;;;15.60;69.30;;;;;;4111218;28;20049;-63
2023/04/10 03:32:00;;;;;;;34.83;26.17;;;15.60;69.20;;;;;;4110278;28;20053;-63
2023/04/10 03:34:42;;;;;;;37.78;26.98;;;15.60;69.30;;;;;;4113859;28;20073;-63
2023/04/10 03:37:22;;;;;;;36.17;23.50;;;15.60;69.20;;;;;;4114891;28;20093;-63
2023/04/10 03:40:07;;;;;;;33.28;24.80;;;15.60;69.50;;;;;;4142354;28;20103;-63
2023/04/10 03:42:48;;;;;;;36.17;25.52;;;15.50;69.50;;;;;;4141753;28;20156;-63
2023/04/10 03:45:29;;;;;;;38.07;26.67;;;15.60;69.60;;;;;;4143225;28;20048;-62
2023/04/10 03:48:10;;;;;;;35.38;25.15;;;15.50;69.30;;;;;;4143190;28;20049;-64
2023/04/10 03:50:55;;;;;;;33.70;25.17;;;15.60;69.30;;;;;;4123379;28;20079;-63
2023/04/10 03:53:36;;;;;;;39.38;26.85;;;15.50;69.50;;;;;;4125806;28;20190;-63
2023/04/10 03:56:22;;;;;;;33.90;25.52;;;15.50;69.10;;;;;;4114501;28;20143;-64
2023/04/10 03:59:03;;;;;;;37.67;26.90;;;15.50;68.50;;;;;;4126627;28;20172;-63
2023/04/10 04:01:51;;;;;;;36.83;25.67;;;15.50;68.50;;;;;;4139821;28;20516;-63
2023/04/10 04:04:32;;;;;;;34.78;25.25;;;15.50;68.60;;;;;;4141826;28;20068;-63
2023/04/10 04:07:32;;;;;;;38.25;27.17;;;15.50;68.40;;;;;;4125170;28;20065;-63
2023/04/10 04:10:42;;;;;;;35.83;26.23;;;15.50;69.00;;;;;;4123574;28;20073;-63
2023/04/10 04:13:35;;;;;;;39.97;26.23;;;15.50;69.40;;;;;;4120169;28;20134;-63
2023/04/10 04:16:23;;;;;;;35.03;25.08;;;15.50;68.90;;;;;;4109224;28;20410;-63
2023/04/10 04:19:12;;;;;;;35.95;26.02;;;15.40;69.50;;;;;;4109671;28;20117;-63
2023/04/10 04:22:13;;;;;;;35.80;27.67;;;15.40;69.20;;;;;;4110401;28;20116;-63
2023/04/10 04:25:13;;;;;;;34.88;26.55;;;15.40;68.80;;;;;;4119191;28;20077;-64
2023/04/10 04:28:06;;;;;;;36.20;26.02;;;15.40;68.80;;;;;;4126465;28;20147;-64
2023/04/10 04:30:48;;;;;;;36.30;26.47;;;15.40;68.80;;;;;;4126685;28;20061;-63
2023/04/10 04:33:38;;;;;;;40.97;29.10;;;15.40;68.90;;;;;;4140216;28;20529;-64
2023/04/10 04:36:36;;;;;;;39.63;28.08;;;15.40;69.30;;;;;;4141340;28;20069;-64
2023/04/10 04:39:28;;;;;;;39.08;27.25;;;15.40;69.40;;;;;;4140450;28;20057;-63
2023/04/10 04:42:15;;;;;;;38.88;27.17;;;15.40;68.90;;;;;;4125918;28;20185;-63
2023/04/10 04:44:58;;;;;;;38.03;27.88;;;15.40;68.50;;;;;;4125023;28;20073;-63
2023/04/10 04:48:20;;;;;;;40.00;28.05;;;15.30;68.70;;;;;;4122269;28;20053;-63
2023/04/10 04:51:15;;;;;;;37.33;27.60;;;15.40;68.80;;;;;;4130822;28;20144;-63
2023/04/10 04:54:03;;;;;;;40.05;28.27;;;15.30;68.90;;;;;;4124745;28;20057;-63
2023/04/10 04:56:52;;;;;;;43.72;29.23;;;15.30;69.90;;;;;;4126185;28;20061;-63
2023/04/10 04:59:52;;;;;;;40.30;29.42;;;15.30;68.90;;;;;;4109863;28;20101;-63
2023/04/10 05:02:56;;;;;;;42.95;28.25;;;15.30;69.20;;;;;;4125845;28;20060;-63
2023/04/10 05:05:44;;;;;;;38.08;27.02;;;15.30;68.90;;;;;;4142239;28;20057;-63
2023/04/10 05:08:51;;;;;;;40.65;29.33;;;15.30;68.70;;;;;;4140613;28;20049;-62
2023/04/10 05:11:52;;;;;;;35.97;26.92;;;15.30;68.90;;;;;;4129239;28;20524;-63
2023/04/10 05:14:54;;;;;;;41.63;29.80;;;15.30;69.10;;;;;;4114661;28;20100;-63
2023/04/10 05:17:53;;;;;;;42.85;29.40;;;15.30;69.30;;;;;;4109810;28;20426;-63
2023/04/10 05:21:11;;;;;;;40.42;30.27;;;15.30;69.40;;;;;;4126790;28;20065;-63
2023/04/10 05:24:10;;;;;;;40.03;28.80;;;15.30;69.40;;;;;;4129174;28;20141;-62
2023/04/10 05:26:57;;;;;;;40.50;27.98;;;15.30;69.20;;;;;;4129138;28;20215;-67
2023/04/10 05:29:56;;;;;;;41.63;30.55;;;15.30;69.20;;;;;;4126288;28;20069;-63
2023/04/10 05:32:53;;;;;;;46.50;30.73;;;15.30;69.70;;;;;;4131618;28;20080;-62
2023/04/10 05:35:55;;;;;;;42.17;29.70;;;15.30;70.00;;;;;;4145038;28;20072;-63
2023/04/10 05:38:48;;;;;;;41.92;29.70;;;15.30;70.40;;;;;;4113030;28;20061;-63
2023/04/10 05:41:45;;;;;;;41.20;30.35;;;15.30;70.10;;;;;;4111450;28;20181;-64
2023/04/10 05:44:30;;;;;;;40.40;29.67;;;15.30;70.30;;;;;;4120881;28;20126;-63
2023/04/10 05:47:40;;;;;;;43.28;30.30;;;15.30;70.20;;;;;;4100371;28;20073;-64
2023/04/10 05:50:35;;;;;;;45.17;31.13;;;15.30;70.10;;;;;;4111655;28;20081;-62
2023/04/10 05:53:50;;;;;;;39.20;28.65;;;15.30;69.90;;;;;;4115570;28;20061;-63
2023/04/10 05:56:54;;;;;;;42.65;29.88;;;15.30;70.10;;;;;;4121543;28;20057;-62
2023/04/10 05:59:50;;;;;;;44.38;31.48;;;15.30;70.40;;;;;;4123282;28;20092;-62
2023/04/10 06:02:34;;;;;;;42.05;29.02;;;15.30;70.10;;;;;;4111579;28;20192;-62
2023/04/10 06:05:15;;;;;;;41.17;30.88;;;15.30;69.80;;;;;;4117260;28;20057;-62
2023/04/10 06:07:57;;;;;;;43.85;30.70;;;15.30;69.50;;;;;;4126251;28;20056;-61
2023/04/10 06:10:40;;;;;;;43.67;30.65;;;15.30;69.50;;;;;;4111605;28;20142;-62
2023/04/10 06:13:24;;;;;;;44.63;32.42;;;15.30;69.20;;;;;;4121291;28;20128;-62
2023/04/10 06:16:08;;;;;;;45.28;31.45;;;15.30;69.20;;;;;;4127390;28;20073;-62
2023/04/10 06:18:51;;;;;;;45.03;31.45;;;15.30;69.00;;;;;;4121625;28;20481;-63
2023/04/10 06:21:32;;;;;;;42.67;30.38;;;15.30;69.20;;;;;;4128681;28;20053;-62
2023/04/10 06:24:14;;;;;;;45.05;32.60;;;15.40;69.30;;;;;;4127389;28;20494;-62
2023/04/10 06:26:56;;;;;;;45.42;32.00;;;15.40;69.10;;;;;;4119890;28;20129;-63
2023/04/10 06:29:37;;;;;;;44.25;30.80;;;15.40;69.00;;;;;;4112005;28;20073;-62
2023/04/10 06:32:18;;;;;;;46.92;33.22;;;15.40;69.20;;;;;;4111955;28;20065;-63
2023/04/10 06:34:59;;;;;;;44.90;31.38;;;15.40;69.00;;;;;;4122174;28;20438;-62
2023/04/10 06:37:41;;;;;;;44.78;31.20;;;15.40;68.90;;;;;;4100363;28;20061;-63
2023/04/10 06:40:22;;;;;;;46.80;31.80;;;15.40;68.80;;;;;;4112408;28;20050;-62
2023/04/10 06:43:04;;;;;;;47.10;31.13;;;15.40;68.80;;;;;;4115970;28;20045;-61
2023/04/10 06:45:49;;;;;;;42.25;31.48;;;15.40;68.70;;;;;;4121980;28;20057;-63
2023/04/10 06:48:31;;;;;;;46.13;31.02;;;15.40;68.40;;;;;;4124664;28;20109;-62
2023/04/10 06:51:12;;;;;;;48.42;31.40;;;15.50;68.40;;;;;;4122444;28;20065;-62
2023/04/10 06:53:53;;;;;;;42.88;30.02;;;15.50;68.40;;;;;;4128258;28;20057;-62
2023/04/10 06:56:34;;;;;;;45.17;31.63;;;15.50;68.30;;;;;;4119480;28;20425;-62
2023/04/10 06:59:16;;;;;;;44.97;31.38;;;15.50;68.10;;;;;;4127073;28;20084;-62
2023/04/10 07:01:57;;;;;;;44.10;30.92;;;15.50;68.10;;;;;;4126950;28;20049;-62
2023/04/10 07:04:38;;;;;;;46.08;30.92;;;15.50;68.00;;;;;;4123078;28;20046;-62
2023/04/10 07:07:19;;;;;;;43.45;30.55;;;15.40;67.90;;;;;;4112454;28;20053;-62
2023/04/10 07:10:00;;;;;;;41.08;30.08;;;15.50;68.10;;;;;;4110438;28;20054;-62
2023/04/10 07:12:41;;;;;;;45.22;30.90;;;15.50;69.00;;;;;;4111833;28;20054;-61
2023/04/10 07:15:23;;;;;;;44.03;30.75;;;15.50;68.70;;;;;;4116657;28;20490;-60
2023/04/10 07:18:05;;;;;;;44.28;29.98;;;15.50;68.60;;;;;;4124478;28;20057;-61
2023/04/10 07:20:45;;;;;;;43.75;29.92;;;15.50;68.70;;;;;;4134742;28;20547;-61
2023/04/10 07:23:26;;;;;;;42.30;28.17;;;15.50;68.50;;;;;;4124275;28;20904;-62
2023/04/10 07:26:07;;;;;;;40.45;28.10;;;15.50;68.70;;;;;;4124765;28;20069;-62
2023/04/10 07:28:48;;;;;;;47.27;29.70;;;15.50;68.60;;;;;;4124623;28;20461;-62
2023/04/10 07:31:30;;;;;;;42.55;28.88;;;15.50;68.10;;;;;;4124736;28;20077;-63
2023/04/10 07:34:12;;;;;;;43.15;29.88;;;15.50;67.80;;;;;;4124112;28;20544;-63
2023/04/10 07:36:53;;;;;;;;;;;15.50;67.80;;;;;;4123692;28;20508;-61
2023/04/10 07:39:36;;;;;;;42.63;30.13;;;15.60;67.50;;;;;;4123501;28;20480;-61
2023/04/10 07:42:19;;;;;;;38.88;24.52;;;15.60;68.50;;;;;;4124683;28;20053;-66
2023/04/10 07:45:00;;;;;;;41.67;30.20;;;15.60;67.90;;;;;;4123984;28;20080;-66
2023/04/10 07:47:42;;;;;;;42.30;29.63;;;15.60;67.70;;;;;;4124707;28;20065;-68
2023/04/10 07:50:23;;;;;;;41.30;28.27;;;15.70;67.30;;;;;;4124633;28;20053;-66
2023/04/10 07:53:06;;;;;;;39.05;27.73;;;15.60;68.00;;;;;;4123896;28;20634;-65
2023/04/10 07:55:49;;;;;;;37.22;26.48;;;15.70;67.60;;;;;;4123896;28;20189;-65
2023/04/10 07:58:31;;;;;;;37.13;26.40;;;15.80;67.50;;;;;;4124088;28;20457;-66
2023/04/10 08:01:13;;;;;;;39.97;26.85;;;15.80;67.20;;;;;;4123693;28;20785;-66
2023/04/10 08:03:55;;;;;;;36.30;26.33;;;15.90;66.30;;;;;;4124796;28;20057;-67
2023/04/10 08:06:37;;;;;;;36.95;24.45;;;15.90;65.10;;;;;;4124858;28;20128;-65
2023/04/10 08:09:18;;;;;;;36.60;26.30;;;16.00;65.30;;;;;;4124595;28;20061;-67
2023/04/10 08:11:59;;;;;;;37.92;26.40;;;16.00;65.80;;;;;;4124600;28;20510;-67
2023/04/10 08:14:40;;;;;;;35.38;26.75;;;16.10;65.70;;;;;;4124778;28;20089;-67
2023/04/10 08:17:21;;;;;;;34.30;25.40;;;16.10;65.50;;;;;;4122632;28;20057;-66
2023/04/10 08:20:05;;;;;;;33.10;23.52;;;16.10;65.10;;;;;;4124316;28;20414;-65
2023/04/10 08:22:46;;;;;;;34.22;24.27;;;16.10;64.60;;;;;;4124169;28;20068;-65
2023/04/10 08:25:27;;;;;;;33.53;23.70;;;16.10;64.40;;;;;;4124519;28;20144;-65
2023/04/10 08:28:08;;;;;;;29.02;20.65;;;16.20;64.60;;;;;;4124293;28;20053;-66
2023/04/10 08:30:49;;;;;;;35.25;23.73;;;16.20;64.70;;;;;;4124474;28;20057;-66
2023/04/10 08:33:30;;;;;;;29.40;21.35;;;16.20;64.40;;;;;;4123866;28;20057;-66
2023/04/10 08:36:15;;;;;;;29.75;21.33;;;16.20;64.50;;;;;;4122388;28;20058;-66
2023/04/10 08:38:59;;;;;;;30.17;19.23;;;16.20;64.40;;;;;;4123820;28;20057;-67
2023/04/10 08:41:40;;;;;;;;;;;16.20;64.40;;;;;;4124449;28;20056;-67
2023/04/10 08:44:21;;;;;;;28.15;20.25;;;16.20;64.10;;;;;;4134088;28;20003;-64
2023/04/10 08:47:02;;;;;;;29.47;19.43;;;16.20;63.80;;;;;;4124264;28;20051;-65
2023/04/10 08:49:48;;;;;;;28.58;18.50;;;16.20;63.40;;;;;;4123373;28;20081;-65
2023/04/10 08:52:34;;;;;;;26.65;18.10;;;16.20;63.60;;;;;;4134117;28;20057;-65
2023/04/10 08:55:16;;;;;;;26.80;17.92;;;16.20;63.50;;;;;;4122913;28;20578;-64
2023/04/10 08:57:57;;;;;;;25.35;17.77;;;16.30;63.70;;;;;;4123502;28;20297;-64
2023/04/10 09:00:41;;;;;;;25.88;17.90;;;16.30;63.30;;;;;;4124087;28;20054;-64
2023/04/10 09:03:22;;;;;;;24.98;18.52;;;16.30;63.30;;;;;;4123721;28;20558;-65
2023/04/10 09:06:04;;;;;;;24.25;17.67;;;16.40;63.20;;;;;;4123825;28;20072;-65
2023/04/10 09:08:46;;;;;;;25.48;18.42;;;16.40;63.00;;;;;;4124267;28;20057;-64
2023/04/10 09:11:59;;;;;;;26.95;18.67;;;16.40;62.00;;;;;;4124206;28;20108;-65
2023/04/10 09:14:41;;;;;;;23.58;17.80;;;16.40;60.70;;;;;;4123697;28;20410;-65
2023/04/10 09:17:22;;;;;;;;;;;16.40;61.80;;;;;;4124314;28;20128;-65
2023/04/10 09:20:19;;;;;;;23.77;17.98;;;16.40;61.90;;;;;;4123620;28;19929;-66
2023/04/10 09:23:01;;;;;;;26.23;17.75;;;16.40;63.00;;;;;;4123413;28;20129;-66
2023/04/10 09:25:43;;;;;;;24.42;17.90;;;16.40;62.00;;;;;;4123839;28;20065;-65
2023/04/10 09:28:24;;;;;;;23.10;17.38;;;16.40;61.50;;;;;;4123673;28;20104;-65
2023/04/10 09:31:30;;;;;;;23.45;17.08;;;16.50;61.80;;;;;;4123943;28;20081;-66
2023/04/10 09:34:14;;;;;;;25.42;18.30;;;16.50;61.00;;;;;;4123916;28;21101;-66
2023/04/10 09:36:57;;;;;;;22.98;16.38;;;16.50;60.70;;;;;;4123313;28;20061;-66
2023/04/10 09:39:41;;;;;;;25.13;17.27;;;16.50;60.20;;;;;;4122947;28;20062;-66
2023/04/10 09:42:31;;;;;;;25.02;17.73;;;16.60;60.80;;;;;;4123777;28;20061;-66
2023/04/10 09:45:12;;;;;;;23.98;17.73;;;16.60;60.00;;;;;;4123450;28;20597;-65
2023/04/10 09:48:03;;;;;;;22.73;17.92;;;16.60;60.60;;;;;;4123975;28;20065;-65
2023/04/10 09:50:45;;;;;;;24.15;17.02;;;16.60;60.30;;;;;;4123619;28;20201;-66
2023/04/10 09:53:26;;;;;;;20.50;15.93;;;16.60;60.90;;;;;;4122384;28;20065;-65
2023/04/10 09:56:07;;;;;;;23.73;16.75;;;16.70;61.00;;;;;;4122840;28;20121;-66
2023/04/10 09:58:50;;;;;;;21.55;15.30;;;16.70;60.90;;;;;;4123145;28;20104;-66
2023/04/10 10:01:33;;;;;;;24.70;15.75;;;16.70;60.70;;;;;;4123136;28;20393;-66
2023/04/10 10:04:16;;;;;;;22.05;13.73;;;16.80;61.20;;;;;;4121497;28;20053;-66
2023/04/10 10:06:57;;;;;;;22.25;16.67;;;16.80;61.10;;;;;;4122259;28;20049;-64
2023/04/10 10:09:39;;;;;;;22.40;16.75;;;16.80;62.00;;;;;;4125222;28;20062;-66
2023/04/10 10:12:24;;;;;;;19.35;14.88;;;16.80;60.70;;;;;;4126042;28;20142;-66
2023/04/10 10:15:12;;;;;;;19.10;15.35;;;16.90;60.40;;;;;;4125530;28;20124;-66
2023/04/10 10:18:03;;;;;;;21.42;15.20;;;16.90;60.00;;;;;;4125706;28;20089;-66
2023/04/10 10:20:46;;;;;;;18.33;13.97;;;16.90;59.80;;;;;;4126555;28;20228;-66
2023/04/10 10:23:28;;;;;;;19.67;13.85;;;17.00;59.80;;;;;;4125841;28;20100;-67
2023/04/10 10:26:10;;;;;;;20.48;14.43;;;17.00;59.50;;;;;;4126363;28;20065;-64
2023/04/10 10:28:52;;;;;;;21.58;14.13;;;17.00;59.40;;;;;;4126365;28;20061;-67
2023/04/10 10:31:36;;;;;;;20.92;13.50;;;17.10;59.40;;;;;;4125772;28;20058;-67
2023/04/10 10:34:17;;;;;;;18.52;14.10;;;17.10;59.20;;;;;;4126216;28;20061;-66
2023/04/10 10:36:58;;;;;;;18.90;13.98;;;17.10;59.10;;;;;;4126202;28;20635;-66
2023/04/10 10:39:47;;;;;;;16.05;12.80;;;17.10;59.10;;;;;;4125945;28;20434;-66
2023/04/10 10:42:36;;;;;;;18.55;13.50;;;17.10;59.10;;;;;;4124799;28;20178;-65
2023/04/10 10:45:21;;;;;;;15.98;12.80;;;17.20;59.30;;;;;;4125922;28;20136;-67
2023/04/10 10:48:03;;;;;;;18.98;14.45;;;17.20;59.20;;;;;;4126042;28;20073;-67
2023/04/10 10:50:52;;;;;;;20.67;14.35;;;17.20;59.00;;;;;;4124814;28;20557;-65
2023/04/10 10:53:34;;;;;;;18.60;13.63;;;17.20;58.70;;;;;;4125955;28;20553;-67
2023/04/10 10:56:35;;;;;;;17.00;12.68;;;17.20;58.80;;;;;;4125477;28;20057;-67
2023/04/10 10:59:15;;;;;;;15.45;11.13;;;17.30;58.50;;;;;;4125544;28;20057;-67
2023/04/10 11:02:14;;;;;;;13.20;9.90;;;17.30;58.70;;;;;;4125886;28;20061;-67
2023/04/10 11:04:56;;;;;;;17.88;11.50;;;17.30;58.60;;;;;;4125509;28;20061;-67
2023/04/10 11:08:09;;;;;;;19.48;10.95;;;17.30;58.70;;;;;;4125945;28;20062;-67
2023/04/10 11:10:59;;;;;;;11.40;9.30;;;17.30;58.00;;;;;;4124380;28;20525;-66
2023/04/10 11:13:42;;;;;;;10.38;9.18;;;17.30;58.40;;;;;;4125298;28;20732;-67
2023/04/10 11:16:42;;;;;;;11.57;8.68;;;17.40;58.20;;;;;;4125654;28;20049;-68
2023/04/10 11:19:24;;;;;;;10.52;8.13;;;17.40;57.80;;;;;;4124783;28;20405;-68
2023/04/10 11:22:14;;;;;;;9.43;8.10;;;17.40;58.00;;;;;;4125402;28;20061;-69
2023/04/10 11:25:01;;;;;;;9.38;8.38;;;17.40;57.80;;;;;;4124883;28;20124;-69
2023/04/10 11:27:45;;;;;;;9.30;7.60;;;17.40;57.70;;;;;;4125304;28;20056;-69
2023/04/10 11:30:33;;;;;;;8.63;7.25;;;17.40;58.10;;;;;;4125698;28;20488;-68
2023/04/10 11:33:18;;;;;;;8.27;6.97;;;17.40;57.90;;;;;;4125070;28;20698;-69
2023/04/10 11:36:01;;;;;;;8.57;6.97;;;17.40;58.40;;;;;;4125443;28;20057;-68
2023/04/10 11:38:54;;;;;;;8.68;6.82;;;17.40;58.50;;;;;;4125404;28;20413;-68
2023/04/10 11:41:37;;;;;;;8.45;7.13;;;17.50;58.20;;;;;;4124018;28;20146;-68
2023/04/10 11:44:26;;;;;;;9.05;6.70;;;17.50;58.70;;;;;;4123194;28;20076;-68
2023/04/10 11:47:12;;;;;;;7.85;6.90;;;17.50;58.50;;;;;;4124816;28;20053;-67
2023/04/10 11:49:57;;;;;;;13.93;7.28;;;17.50;58.40;;;;;;4125059;28;20088;-68
2023/04/10 11:52:38;;;;;;;7.18;6.47;;;17.50;58.40;;;;;;4123691;28;21076;-68
2023/04/10 11:55:20;;;;;;;7.82;6.82;;;17.50;58.50;;;;;;4123855;28;20089;-68
2023/04/10 11:58:01;;;;;;;9.32;6.78;;;17.50;58.10;;;;;;4125145;28;20077;-68
2023/04/10 12:00:42;;;;;;;7.07;6.28;;;17.50;58.20;;;;;;4124526;28;20053;-68
2023/04/10 12:03:32;;;;;;;6.97;6.15;;;17.50;58.60;;;;;;4124696;28;20080;-68
2023/04/10 12:06:14;;;;;;;9.88;6.60;;;17.50;58.30;;;;;;4125078;28;20110;-69
2023/04/10 12:08:56;;;;;;;6.43;5.70;;;17.60;58.90;;;;;;4123743;28;20397;-69
2023/04/10 12:11:39;;;;;;;7.32;5.88;;;17.60;58.90;;;;;;4124266;28;20058;-66
2023/04/10 12:14:20;;;;;;;6.35;5.70;;;17.60;58.50;;;;;;4124986;28;20505;-67
2023/04/10 12:17:03;;;;;;;8.80;6.07;;;17.60;58.50;;;;;;4124607;28;20053;-69
2023/04/10 12:19:44;;;;;;;6.15;5.55;;;17.60;58.60;;;;;;4124712;28;20045;-70
2023/04/10 12:22:30;;;;;;;5.60;5.10;;;17.60;58.60;;;;;;4105038;28;20114;-69
2023/04/10 12:25:13;;;;;;;6.10;5.50;;;17.60;58.70;;;;;;4105452;28;20092;-67
2023/04/10 12:27:56;;;;;;;5.38;4.95;;;17.60;59.70;;;;;;4124201;28;20092;-68
2023/04/10 12:30:37;;;;;;;5.57;5.07;;;17.60;58.80;;;;;;4123482;28;20065;-69
2023/04/10 12:33:21;;;;;;;5.55;5.03;;;17.60;58.90;;;;;;4124350;28;20066;-67
2023/04/10 12:36:02;;;;;;;5.55;4.88;;;17.70;58.20;;;;;;4124326;28;20125;-67
2023/04/10 12:38:44;;;;;;;10.30;4.45;;;17.70;58.20;;;;;;4123640;28;20108;-67
2023/04/10 12:41:28;;;;;;;6.07;4.03;;;17.70;58.20;;;;;;4123380;28;20065;-68
2023/04/10 12:44:12;;;;;;;4.45;3.40;;;17.70;58.00;;;;;;4124207;28;20061;-70
2023/04/10 12:47:01;;;;;;;4.22;3.65;;;17.80;57.80;;;;;;4124067;28;20053;-68
2023/04/10 12:49:41;;;;;;;5.18;4.15;;;17.80;57.70;;;;;;4123759;28;20094;-68
2023/04/10 12:52:23;;;;;;;5.53;4.00;;;17.80;58.30;;;;;;4124222;28;20116;-68
2023/04/10 12:55:15;;;;;;;4.70;4.30;;;17.80;57.80;;;;;;4123549;28;20053;-67
2023/04/10 12:57:57;;;;;;;3.92;3.63;;;17.80;57.50;;;;;;4123467;28;20057;-67
2023/04/10 13:00:40;;;;;;;4.30;3.90;;;17.80;58.20;;;;;;4123637;28;20081;-68
2023/04/10 13:03:21;;;;;;;5.05;4.07;;;17.80;58.10;;;;;;4124247;28;20058;-69
2023/04/10 13:06:02;;;;;;;4.57;3.78;;;17.80;58.70;;;;;;4122958;28;20148;-67
2023/04/10 13:08:43;;;;;;;4.38;3.80;;;17.80;59.00;;;;;;4124091;28;20061;-68
2023/04/10 13:11:24;;;;;;;3.80;3.50;;;17.80;59.70;;;;;;4122218;28;20060;-68
2023/04/10 13:14:05;;;;;;;6.22;4.13;;;17.80;60.20;;;;;;4123636;28;20054;-68
2023/04/10 13:16:47;;;;;;;4.18;3.50;;;17.80;60.30;;;;;;4122977;28;20441;-69
2023/04/10 13:19:28;;;;;;;4.30;3.90;;;17.70;61.00;;;;;;4123809;28;20049;-69
2023/04/10 13:22:09;;;;;;;4.05;3.75;;;17.80;61.30;;;;;;4122647;28;20073;-69
2023/04/10 13:24:49;;;;;;;6.13;3.80;;;17.80;61.20;;;;;;4123984;28;20077;-68
2023/04/10 13:27:31;;;;;;;3.80;3.60;;;17.70;61.50;;;;;;4126126;28;20057;-73
2023/04/10 13:30:11;;;;;;;9.33;4.20;;;17.70;61.70;;;;;;4125843;28;20049;-72
2023/04/10 13:32:54;;;;;;;6.38;3.30;;;17.70;62.20;;;;;;4126246;28;20056;-70
2023/04/10 13:35:35;;;;;;;4.32;3.92;;;17.70;62.10;;;;;;4126296;28;20067;-68
2023/04/10 13:38:16;;;;;;;3.92;3.58;;;17.70;62.50;;;;;;4117281;28;20050;-69
2023/04/10 13:41:01;;;;;;;3.97;3.65;;;17.70;62.50;;;;;;4110171;28;20045;-68
2023/04/10 13:43:41;;;;;;;6.40;3.78;;;17.70;62.40;;;;;;4110845;28;20062;-67
2023/04/10 13:46:22;;;;;;;3.97;3.40;;;17.60;62.80;;;;;;4112032;28;20508;-69
2023/04/10 13:49:04;;;;;;;6.13;4.03;;;17.60;62.60;;;;;;4111756;28;20065;-70
2023/04/10 13:51:45;;;;;;;4.03;3.65;;;17.60;62.40;;;;;;4112986;28;20410;-68
2023/04/10 13:54:27;;;;;;;5.20;3.80;;;17.60;62.50;;;;;;4112708;28;20054;-67
2023/04/10 13:57:08;;;;;;;4.57;4.10;;;17.60;62.70;;;;;;4112822;28;20058;-68
2023/04/10 13:59:49;;;;;;;5.80;4.05;;;17.60;62.90;;;;;;4112937;28;20057;-69
2023/04/10 14:02:30;;;;;;;7.13;4.43;;;17.60;62.70;;;;;;4112841;28;20184;-69
2023/04/10 14:05:12;;;;;;;5.85;4.50;;;17.60;63.30;;;;;;4112837;28;20053;-66